TAF KAFW
KAFW 090527Z 0906/1006 16010KT P6SM BKN200 WS020/19045KT FM090900 18011KT 5SM BR SCT010 WS020/22045KT FM091500 22015G25KT P6SM SCT020 BKN200 FM100000 19011KT P6SM BKN200=
METAR KAFW
WC KAFW
WS KAFW
WV KAFW